sensor_id;sensor_type;location;lat;lon;timestamp;P1;durP1;ratioP1;P2;durP2;ratioP2
8048;SDS011;20935;42.660;23.342;2024-03-08T00:00:33;12.20;;;9.30;;
8048;SDS011;20935;42.660;23.342;2024-03-08T00:03:19;12.73;;;9.00;;
8048;SDS011;20935;42.660;23.342;2024-03-08T00:06:09;12.53;;;8.40;;
8048;SDS011;20935;42.660;23.342;2024-03-08T00:08:57;13.77;;;9.07;;
8048;SDS011;20935;42.660;23.342;2024-03-08T00:11:44;12.17;;;8.50;;
8048;SDS011;20935;42.660;23.342;2024-03-08T00:14:32;11.57;;;8.03;;
8048;SDS011;20935;42.660;23.342;2024-03-08T00:17:18;10.30;;;7.30;;
8048;SDS011;20935;42.660;23.342;2024-03-08T00:20:06;9.13;;;6.57;;
8048;SDS011;20935;42.660;23.342;2024-03-08T00:22:54;7.03;;;5.30;;
8048;SDS011;20935;42.660;23.342;2024-03-08T00:25:44;9.00;;;6.80;;
8048;SDS011;20935;42.660;23.342;2024-03-08T00:28:31;10.57;;;7.30;;
8048;SDS011;20935;42.660;23.342;2024-03-08T00:31:19;8.17;;;6.43;;
8048;SDS011;20935;42.660;23.342;2024-03-08T00:34:06;9.70;;;7.07;;
8048;SDS011;20935;42.660;23.342;2024-03-08T00:36:55;8.60;;;6.90;;
8048;SDS011;20935;42.660;23.342;2024-03-08T00:39:42;10.23;;;7.47;;
8048;SDS011;20935;42.660;23.342;2024-03-08T00:42:31;6.60;;;4.87;;
8048;SDS011;20935;42.660;23.342;2024-03-08T00:45:21;7.87;;;5.90;;
8048;SDS011;20935;42.660;23.342;2024-03-08T00:48:08;6.17;;;4.93;;
8048;SDS011;20935;42.660;23.342;2024-03-08T00:50:56;4.47;;;3.87;;
8048;SDS011;20935;42.660;23.342;2024-03-08T00:53:43;7.83;;;6.03;;
8048;SDS011;20935;42.660;23.342;2024-03-08T00:56:30;5.83;;;4.73;;
8048;SDS011;20935;42.660;23.342;2024-03-08T00:59:18;4.00;;;3.33;;
8048;SDS011;20935;42.660;23.342;2024-03-08T01:02:08;3.47;;;3.17;;
8048;SDS011;20935;42.660;23.342;2024-03-08T01:04:55;4.00;;;3.60;;
8048;SDS011;20935;42.660;23.342;2024-03-08T01:07:41;3.03;;;2.73;;
8048;SDS011;20935;42.660;23.342;2024-03-08T01:10:28;3.10;;;2.80;;
8048;SDS011;20935;42.660;23.342;2024-03-08T01:13:18;4.40;;;3.20;;
8048;SDS011;20935;42.660;23.342;2024-03-08T01:16:07;3.00;;;2.70;;
8048;SDS011;20935;42.660;23.342;2024-03-08T01:18:54;3.20;;;2.63;;
8048;SDS011;20935;42.660;23.342;2024-03-08T01:21:40;2.80;;;2.60;;
8048;SDS011;20935;42.660;23.342;2024-03-08T01:24:28;3.17;;;2.63;;
8048;SDS011;20935;42.660;23.342;2024-03-08T01:27:15;2.63;;;2.43;;
8048;SDS011;20935;42.660;23.342;2024-03-08T01:30:01;3.03;;;2.77;;
8048;SDS011;20935;42.660;23.342;2024-03-08T01:32:53;3.17;;;2.87;;
8048;SDS011;20935;42.660;23.342;2024-03-08T01:35:40;2.70;;;2.50;;
8048;SDS011;20935;42.660;23.342;2024-03-08T01:38:30;3.10;;;2.80;;
8048;SDS011;20935;42.660;23.342;2024-03-08T01:41:17;3.03;;;2.63;;
8048;SDS011;20935;42.660;23.342;2024-03-08T01:44:05;3.67;;;2.60;;
8048;SDS011;20935;42.660;23.342;2024-03-08T01:46:54;2.90;;;2.57;;
8048;SDS011;20935;42.660;23.342;2024-03-08T01:49:43;5.47;;;3.13;;
8048;SDS011;20935;42.660;23.342;2024-03-08T01:52:29;2.80;;;2.60;;
8048;SDS011;20935;42.660;23.342;2024-03-08T01:55:17;2.87;;;2.67;;
8048;SDS011;20935;42.660;23.342;2024-03-08T01:58:03;3.20;;;2.90;;
8048;SDS011;20935;42.660;23.342;2024-03-08T02:00:51;2.93;;;2.73;;
8048;SDS011;20935;42.660;23.342;2024-03-08T02:03:39;5.60;;;3.50;;
8048;SDS011;20935;42.660;23.342;2024-03-08T02:06:27;4.20;;;3.00;;
8048;SDS011;20935;42.660;23.342;2024-03-08T02:09:15;2.90;;;2.70;;
8048;SDS011;20935;42.660;23.342;2024-03-08T02:12:03;3.77;;;3.37;;
8048;SDS011;20935;42.660;23.342;2024-03-08T02:14:50;3.10;;;2.80;;
8048;SDS011;20935;42.660;23.342;2024-03-08T02:17:39;3.30;;;2.80;;
8048;SDS011;20935;42.660;23.342;2024-03-08T02:20:29;2.80;;;2.60;;
8048;SDS011;20935;42.660;23.342;2024-03-08T02:23:16;3.03;;;2.73;;
8048;SDS011;20935;42.660;23.342;2024-03-08T02:26:03;5.00;;;3.00;;
8048;SDS011;20935;42.660;23.342;2024-03-08T02:28:51;2.80;;;2.60;;
8048;SDS011;20935;42.660;23.342;2024-03-08T02:31:37;2.50;;;2.30;;
8048;SDS011;20935;42.660;23.342;2024-03-08T02:34:25;3.30;;;3.00;;
8048;SDS011;20935;42.660;23.342;2024-03-08T02:37:13;3.03;;;2.50;;
8048;SDS011;20935;42.660;23.342;2024-03-08T02:40:00;2.50;;;2.30;;
8048;SDS011;20935;42.660;23.342;2024-03-08T02:42:47;2.87;;;2.67;;
8048;SDS011;20935;42.660;23.342;2024-03-08T02:45:33;5.53;;;3.00;;
8048;SDS011;20935;42.660;23.342;2024-03-08T02:48:20;3.53;;;3.23;;
8048;SDS011;20935;42.660;23.342;2024-03-08T02:51:07;3.43;;;3.07;;
8048;SDS011;20935;42.660;23.342;2024-03-08T02:53:57;3.53;;;2.87;;
8048;SDS011;20935;42.660;23.342;2024-03-08T02:56:44;6.20;;;3.27;;
8048;SDS011;20935;42.660;23.342;2024-03-08T02:59:32;3.40;;;2.80;;
8048;SDS011;20935;42.660;23.342;2024-03-08T03:02:18;3.33;;;2.63;;
8048;SDS011;20935;42.660;23.342;2024-03-08T03:05:05;1.90;;;1.80;;
8048;SDS011;20935;42.660;23.342;2024-03-08T03:07:53;2.10;;;1.90;;
8048;SDS011;20935;42.660;23.342;2024-03-08T03:10:41;1.80;;;1.70;;
8048;SDS011;20935;42.660;23.342;2024-03-08T03:13:28;2.07;;;1.93;;
8048;SDS011;20935;42.660;23.342;2024-03-08T03:16:18;1.80;;;1.70;;
8048;SDS011;20935;42.660;23.342;2024-03-08T03:19:06;1.63;;;1.53;;
8048;SDS011;20935;42.660;23.342;2024-03-08T03:21:53;1.93;;;1.63;;
8048;SDS011;20935;42.660;23.342;2024-03-08T03:24:40;2.10;;;1.50;;
8048;SDS011;20935;42.660;23.342;2024-03-08T03:27:29;1.80;;;1.70;;
8048;SDS011;20935;42.660;23.342;2024-03-08T03:30:16;1.90;;;1.70;;
8048;SDS011;20935;42.660;23.342;2024-03-08T03:33:09;1.50;;;1.40;;
8048;SDS011;20935;42.660;23.342;2024-03-08T03:35:58;1.80;;;1.70;;
8048;SDS011;20935;42.660;23.342;2024-03-08T03:38:45;2.03;;;1.83;;
8048;SDS011;20935;42.660;23.342;2024-03-08T03:41:31;2.03;;;1.83;;
8048;SDS011;20935;42.660;23.342;2024-03-08T03:44:19;1.70;;;1.60;;
8048;SDS011;20935;42.660;23.342;2024-03-08T03:47:09;4.03;;;1.97;;
8048;SDS011;20935;42.660;23.342;2024-03-08T03:49:59;2.10;;;1.90;;
8048;SDS011;20935;42.660;23.342;2024-03-08T03:52:51;3.00;;;1.90;;
8048;SDS011;20935;42.660;23.342;2024-03-08T03:55:37;1.90;;;1.80;;
8048;SDS011;20935;42.660;23.342;2024-03-08T03:58:24;1.90;;;1.80;;
8048;SDS011;20935;42.660;23.342;2024-03-08T04:01:13;2.73;;;2.53;;
8048;SDS011;20935;42.660;23.342;2024-03-08T04:04:00;1.90;;;1.80;;
8048;SDS011;20935;42.660;23.342;2024-03-08T04:06:47;2.97;;;1.70;;
8048;SDS011;20935;42.660;23.342;2024-03-08T04:09:36;4.23;;;1.70;;
8048;SDS011;20935;42.660;23.342;2024-03-08T04:12:23;2.07;;;1.97;;
8048;SDS011;20935;42.660;23.342;2024-03-08T04:15:10;1.53;;;1.43;;
8048;SDS011;20935;42.660;23.342;2024-03-08T04:17:58;1.63;;;1.50;;
8048;SDS011;20935;42.660;23.342;2024-03-08T04:20:45;1.63;;;1.53;;
8048;SDS011;20935;42.660;23.342;2024-03-08T04:23:33;1.70;;;1.60;;
8048;SDS011;20935;42.660;23.342;2024-03-08T04:26:21;1.83;;;1.70;;
8048;SDS011;20935;42.660;23.342;2024-03-08T04:29:07;2.20;;;2.00;;
8048;SDS011;20935;42.660;23.342;2024-03-08T04:31:54;1.80;;;1.70;;
8048;SDS011;20935;42.660;23.342;2024-03-08T04:34:42;1.70;;;1.60;;
8048;SDS011;20935;42.660;23.342;2024-03-08T04:37:29;2.10;;;2.00;;
8048;SDS011;20935;42.660;23.342;2024-03-08T04:40:16;2.30;;;2.10;;
8048;SDS011;20935;42.660;23.342;2024-03-08T04:43:04;1.80;;;1.70;;
8048;SDS011;20935;42.660;23.342;2024-03-08T04:45:51;1.90;;;1.80;;
8048;SDS011;20935;42.660;23.342;2024-03-08T04:48:39;2.50;;;2.30;;
8048;SDS011;20935;42.660;23.342;2024-03-08T04:51:28;2.30;;;2.10;;
8048;SDS011;20935;42.660;23.342;2024-03-08T04:54:15;2.57;;;2.10;;
8048;SDS011;20935;42.660;23.342;2024-03-08T04:57:02;2.47;;;2.27;;
8048;SDS011;20935;42.660;23.342;2024-03-08T04:59:50;2.50;;;2.30;;
8048;SDS011;20935;42.660;23.342;2024-03-08T05:02:37;2.67;;;2.13;;
8048;SDS011;20935;42.660;23.342;2024-03-08T05:05:24;4.00;;;2.53;;
8048;SDS011;20935;42.660;23.342;2024-03-08T05:08:13;2.73;;;2.40;;
8048;SDS011;20935;42.660;23.342;2024-03-08T05:11:02;3.70;;;2.87;;
8048;SDS011;20935;42.660;23.342;2024-03-08T05:13:52;3.97;;;2.43;;
8048;SDS011;20935;42.660;23.342;2024-03-08T05:16:39;3.47;;;2.93;;
8048;SDS011;20935;42.660;23.342;2024-03-08T05:19:25;3.20;;;2.90;;
8048;SDS011;20935;42.660;23.342;2024-03-08T05:22:12;3.20;;;2.67;;
8048;SDS011;20935;42.660;23.342;2024-03-08T05:25:01;5.53;;;3.03;;
8048;SDS011;20935;42.660;23.342;2024-03-08T05:27:50;3.00;;;2.70;;
8048;SDS011;20935;42.660;23.342;2024-03-08T05:30:37;3.23;;;2.80;;
8048;SDS011;20935;42.660;23.342;2024-03-08T05:33:24;3.30;;;3.00;;
8048;SDS011;20935;42.660;23.342;2024-03-08T05:36:11;2.70;;;2.50;;
8048;SDS011;20935;42.660;23.342;2024-03-08T05:39:00;3.50;;;3.20;;
8048;SDS011;20935;42.660;23.342;2024-03-08T05:41:48;5.07;;;3.07;;
8048;SDS011;20935;42.660;23.342;2024-03-08T05:44:35;3.30;;;3.00;;
8048;SDS011;20935;42.660;23.342;2024-03-08T05:47:22;3.10;;;2.80;;
8048;SDS011;20935;42.660;23.342;2024-03-08T05:50:09;3.03;;;2.83;;
8048;SDS011;20935;42.660;23.342;2024-03-08T05:52:56;4.47;;;3.80;;
8048;SDS011;20935;42.660;23.342;2024-03-08T05:55:43;4.97;;;3.83;;
8048;SDS011;20935;42.660;23.342;2024-03-08T05:58:31;4.80;;;4.40;;
8048;SDS011;20935;42.660;23.342;2024-03-08T06:01:18;6.10;;;4.90;;
8048;SDS011;20935;42.660;23.342;2024-03-08T06:04:05;6.73;;;5.30;;
8048;SDS011;20935;42.660;23.342;2024-03-08T06:06:52;8.20;;;5.60;;
8048;SDS011;20935;42.660;23.342;2024-03-08T06:09:41;9.80;;;7.00;;
8048;SDS011;20935;42.660;23.342;2024-03-08T06:12:30;10.47;;;7.23;;
8048;SDS011;20935;42.660;23.342;2024-03-08T06:15:20;8.53;;;6.67;;
8048;SDS011;20935;42.660;23.342;2024-03-08T06:18:07;10.27;;;6.80;;
8048;SDS011;20935;42.660;23.342;2024-03-08T06:20:56;11.20;;;7.03;;
8048;SDS011;20935;42.660;23.342;2024-03-08T06:23:43;9.30;;;7.10;;
8048;SDS011;20935;42.660;23.342;2024-03-08T06:26:29;10.17;;;7.23;;
8048;SDS011;20935;42.660;23.342;2024-03-08T06:29:16;8.90;;;6.87;;
8048;SDS011;20935;42.660;23.342;2024-03-08T06:32:05;9.33;;;6.90;;
8048;SDS011;20935;42.660;23.342;2024-03-08T06:34:52;8.67;;;6.70;;
8048;SDS011;20935;42.660;23.342;2024-03-08T06:37:38;9.43;;;6.33;;
8048;SDS011;20935;42.660;23.342;2024-03-08T06:40:27;8.00;;;6.10;;
8048;SDS011;20935;42.660;23.342;2024-03-08T06:43:14;8.57;;;6.50;;
8048;SDS011;20935;42.660;23.342;2024-03-08T06:46:01;9.83;;;6.70;;
8048;SDS011;20935;42.660;23.342;2024-03-08T06:48:50;8.17;;;6.40;;
8048;SDS011;20935;42.660;23.342;2024-03-08T06:51:37;9.17;;;6.63;;
8048;SDS011;20935;42.660;23.342;2024-03-08T06:54:26;6.63;;;5.43;;
8048;SDS011;20935;42.660;23.342;2024-03-08T06:57:13;7.63;;;5.17;;
8048;SDS011;20935;42.660;23.342;2024-03-08T07:00:00;6.80;;;5.40;;
8048;SDS011;20935;42.660;23.342;2024-03-08T07:02:47;7.03;;;5.20;;
8048;SDS011;20935;42.660;23.342;2024-03-08T07:05:36;5.37;;;4.87;;
8048;SDS011;20935;42.660;23.342;2024-03-08T07:08:23;4.93;;;4.20;;
8048;SDS011;20935;42.660;23.342;2024-03-08T07:11:13;5.73;;;4.77;;
8048;SDS011;20935;42.660;23.342;2024-03-08T07:14:01;7.13;;;4.80;;
8048;SDS011;20935;42.660;23.342;2024-03-08T07:16:51;7.30;;;4.83;;
8048;SDS011;20935;42.660;23.342;2024-03-08T07:19:38;6.20;;;5.17;;
8048;SDS011;20935;42.660;23.342;2024-03-08T07:22:26;5.77;;;4.93;;
8048;SDS011;20935;42.660;23.342;2024-03-08T07:25:13;6.33;;;4.80;;
8048;SDS011;20935;42.660;23.342;2024-03-08T07:28:06;6.30;;;4.77;;
8048;SDS011;20935;42.660;23.342;2024-03-08T07:30:53;7.03;;;5.10;;
8048;SDS011;20935;42.660;23.342;2024-03-08T07:33:53;5.80;;;5.20;;
8048;SDS011;20935;42.660;23.342;2024-03-08T07:36:40;5.53;;;5.00;;
8048;SDS011;20935;42.660;23.342;2024-03-08T07:39:28;9.03;;;5.10;;
8048;SDS011;20935;42.660;23.342;2024-03-08T07:42:15;8.70;;;5.30;;
8048;SDS011;20935;42.660;23.342;2024-03-08T07:45:02;6.50;;;5.60;;
8048;SDS011;20935;42.660;23.342;2024-03-08T07:47:52;8.47;;;5.57;;
8048;SDS011;20935;42.660;23.342;2024-03-08T07:50:41;8.47;;;5.43;;
8048;SDS011;20935;42.660;23.342;2024-03-08T07:53:28;6.70;;;5.13;;
8048;SDS011;20935;42.660;23.342;2024-03-08T07:56:16;11.20;;;5.50;;
8048;SDS011;20935;42.660;23.342;2024-03-08T07:59:03;6.50;;;5.23;;
8048;SDS011;20935;42.660;23.342;2024-03-08T08:01:50;10.70;;;5.80;;
8048;SDS011;20935;42.660;23.342;2024-03-08T08:04:37;6.47;;;5.43;;
8048;SDS011;20935;42.660;23.342;2024-03-08T08:07:24;6.63;;;5.40;;
8048;SDS011;20935;42.660;23.342;2024-03-08T08:10:11;7.33;;;5.67;;
8048;SDS011;20935;42.660;23.342;2024-03-08T08:13:05;6.30;;;5.23;;
8048;SDS011;20935;42.660;23.342;2024-03-08T08:15:52;5.63;;;5.03;;
8048;SDS011;20935;42.660;23.342;2024-03-08T08:18:39;5.60;;;4.63;;
8048;SDS011;20935;42.660;23.342;2024-03-08T08:21:26;5.20;;;4.57;;
8048;SDS011;20935;42.660;23.342;2024-03-08T08:24:13;6.50;;;5.00;;
8048;SDS011;20935;42.660;23.342;2024-03-08T08:27:00;5.80;;;5.00;;
8048;SDS011;20935;42.660;23.342;2024-03-08T08:29:48;6.40;;;4.73;;
8048;SDS011;20935;42.660;23.342;2024-03-08T08:32:35;6.80;;;5.17;;
8048;SDS011;20935;42.660;23.342;2024-03-08T08:35:22;6.20;;;4.87;;
8048;SDS011;20935;42.660;23.342;2024-03-08T08:38:09;5.20;;;4.70;;
8048;SDS011;20935;42.660;23.342;2024-03-08T08:40:57;5.83;;;5.23;;
8048;SDS011;20935;42.660;23.342;2024-03-08T08:43:47;5.53;;;4.93;;
8048;SDS011;20935;42.660;23.342;2024-03-08T08:46:35;7.80;;;6.37;;
8048;SDS011;20935;42.660;23.342;2024-03-08T08:49:23;6.60;;;5.40;;
8048;SDS011;20935;42.660;23.342;2024-03-08T08:52:11;5.27;;;4.77;;
8048;SDS011;20935;42.660;23.342;2024-03-08T08:54:58;5.27;;;4.77;;
8048;SDS011;20935;42.660;23.342;2024-03-08T08:57:45;5.70;;;4.40;;
8048;SDS011;20935;42.660;23.342;2024-03-08T09:00:32;6.77;;;5.07;;
8048;SDS011;20935;42.660;23.342;2024-03-08T09:03:21;5.63;;;4.80;;
8048;SDS011;20935;42.660;23.342;2024-03-08T09:06:08;6.03;;;5.07;;
8048;SDS011;20935;42.660;23.342;2024-03-08T09:08:55;6.33;;;4.60;;
8048;SDS011;20935;42.660;23.342;2024-03-08T09:11:43;5.43;;;4.93;;
8048;SDS011;20935;42.660;23.342;2024-03-08T09:14:32;6.20;;;5.50;;
8048;SDS011;20935;42.660;23.342;2024-03-08T09:17:20;5.47;;;4.90;;
8048;SDS011;20935;42.660;23.342;2024-03-08T09:20:09;5.80;;;5.20;;
8048;SDS011;20935;42.660;23.342;2024-03-08T09:23:00;4.90;;;3.80;;
8048;SDS011;20935;42.660;23.342;2024-03-08T09:25:46;4.17;;;3.77;;
8048;SDS011;20935;42.660;23.342;2024-03-08T09:28:33;3.63;;;3.33;;
8048;SDS011;20935;42.660;23.342;2024-03-08T09:31:20;3.60;;;3.30;;
8048;SDS011;20935;42.660;23.342;2024-03-08T09:34:10;5.53;;;3.40;;
8048;SDS011;20935;42.660;23.342;2024-03-08T09:36:58;3.77;;;3.47;;
8048;SDS011;20935;42.660;23.342;2024-03-08T09:39:49;3.43;;;3.13;;
8048;SDS011;20935;42.660;23.342;2024-03-08T09:42:36;4.43;;;3.60;;
8048;SDS011;20935;42.660;23.342;2024-03-08T09:45:24;3.27;;;3.00;;
8048;SDS011;20935;42.660;23.342;2024-03-08T09:48:11;3.57;;;3.27;;
8048;SDS011;20935;42.660;23.342;2024-03-08T09:50:59;3.70;;;3.27;;
8048;SDS011;20935;42.660;23.342;2024-03-08T09:53:47;3.87;;;2.90;;
8048;SDS011;20935;42.660;23.342;2024-03-08T09:56:37;4.40;;;4.00;;
8048;SDS011;20935;42.660;23.342;2024-03-08T09:59:26;4.77;;;4.00;;
8048;SDS011;20935;42.660;23.342;2024-03-08T10:02:28;4.87;;;3.27;;
8048;SDS011;20935;42.660;23.342;2024-03-08T10:05:13;3.70;;;3.40;;
8048;SDS011;20935;42.660;23.342;2024-03-08T10:07:59;4.07;;;3.67;;
8048;SDS011;20935;42.660;23.342;2024-03-08T10:10:45;4.20;;;2.70;;
8048;SDS011;20935;42.660;23.342;2024-03-08T10:13:30;2.83;;;2.63;;
8048;SDS011;20935;42.660;23.342;2024-03-08T10:16:19;3.00;;;2.70;;
8048;SDS011;20935;42.660;23.342;2024-03-08T10:19:05;4.00;;;3.60;;
8048;SDS011;20935;42.660;23.342;2024-03-08T10:21:50;2.90;;;2.70;;
8048;SDS011;20935;42.660;23.342;2024-03-08T10:24:37;3.60;;;3.00;;
8048;SDS011;20935;42.660;23.342;2024-03-08T10:27:28;3.70;;;3.27;;
8048;SDS011;20935;42.660;23.342;2024-03-08T10:30:14;3.37;;;2.60;;
8048;SDS011;20935;42.660;23.342;2024-03-08T10:33:03;4.47;;;2.90;;
8048;SDS011;20935;42.660;23.342;2024-03-08T10:35:48;3.90;;;3.50;;
8048;SDS011;20935;42.660;23.342;2024-03-08T10:38:34;2.70;;;2.50;;
8048;SDS011;20935;42.660;23.342;2024-03-08T10:41:24;4.53;;;2.60;;
8048;SDS011;20935;42.660;23.342;2024-03-08T10:44:13;3.23;;;2.33;;
8048;SDS011;20935;42.660;23.342;2024-03-08T10:47:10;2.63;;;2.43;;
8048;SDS011;20935;42.660;23.342;2024-03-08T10:50:03;2.60;;;2.40;;
8048;SDS011;20935;42.660;23.342;2024-03-08T10:52:53;2.93;;;2.23;;
8048;SDS011;20935;42.660;23.342;2024-03-08T10:55:43;2.70;;;2.50;;
8048;SDS011;20935;42.660;23.342;2024-03-08T10:58:28;2.60;;;2.40;;
8048;SDS011;20935;42.660;23.342;2024-03-08T11:01:15;3.33;;;3.03;;
8048;SDS011;20935;42.660;23.342;2024-03-08T11:04:00;4.57;;;2.80;;
8048;SDS011;20935;42.660;23.342;2024-03-08T11:06:49;2.93;;;2.73;;
8048;SDS011;20935;42.660;23.342;2024-03-08T11:09:38;4.67;;;3.20;;
8048;SDS011;20935;42.660;23.342;2024-03-08T11:12:25;3.03;;;2.73;;
8048;SDS011;20935;42.660;23.342;2024-03-08T11:15:13;3.40;;;2.97;;
8048;SDS011;20935;42.660;23.342;2024-03-08T11:17:59;2.97;;;2.77;;
8048;SDS011;20935;42.660;23.342;2024-03-08T11:20:45;2.83;;;2.63;;
8048;SDS011;20935;42.660;23.342;2024-03-08T11:23:32;2.80;;;2.60;;
8048;SDS011;20935;42.660;23.342;2024-03-08T11:26:18;3.20;;;2.47;;
8048;SDS011;20935;42.660;23.342;2024-03-08T11:32:04;3.53;;;2.40;;
8048;SDS011;20935;42.660;23.342;2024-03-08T11:34:51;2.83;;;2.57;;
8048;SDS011;20935;42.660;23.342;2024-03-08T11:37:36;2.50;;;2.30;;
8048;SDS011;20935;42.660;23.342;2024-03-08T11:40:21;2.40;;;2.20;;
8048;SDS011;20935;42.660;23.342;2024-03-08T11:43:07;2.63;;;2.43;;
8048;SDS011;20935;42.660;23.342;2024-03-08T11:45:59;2.53;;;2.33;;
8048;SDS011;20935;42.660;23.342;2024-03-08T11:48:53;2.27;;;2.13;;
8048;SDS011;20935;42.660;23.342;2024-03-08T11:51:41;2.80;;;2.60;;
8048;SDS011;20935;42.660;23.342;2024-03-08T11:54:26;2.67;;;2.47;;
8048;SDS011;20935;42.660;23.342;2024-03-08T11:57:11;2.80;;;2.60;;
8048;SDS011;20935;42.660;23.342;2024-03-08T11:59:56;3.63;;;2.63;;
8048;SDS011;20935;42.660;23.342;2024-03-08T12:02:42;2.27;;;2.07;;
8048;SDS011;20935;42.660;23.342;2024-03-08T12:05:34;3.07;;;2.77;;
8048;SDS011;20935;42.660;23.342;2024-03-08T12:08:23;2.07;;;1.97;;
8048;SDS011;20935;42.660;23.342;2024-03-08T12:11:11;2.47;;;1.97;;
8048;SDS011;20935;42.660;23.342;2024-03-08T12:13:57;3.33;;;2.27;;
8048;SDS011;20935;42.660;23.342;2024-03-08T12:16:45;2.53;;;2.33;;
8048;SDS011;20935;42.660;23.342;2024-03-08T12:19:33;2.17;;;2.00;;
8048;SDS011;20935;42.660;23.342;2024-03-08T12:22:18;2.73;;;2.50;;
8048;SDS011;20935;42.660;23.342;2024-03-08T12:25:05;2.20;;;2.10;;
8048;SDS011;20935;42.660;23.342;2024-03-08T12:27:54;2.80;;;2.50;;
8048;SDS011;20935;42.660;23.342;2024-03-08T12:30:45;2.67;;;2.47;;
8048;SDS011;20935;42.660;23.342;2024-03-08T12:33:30;3.10;;;2.30;;
8048;SDS011;20935;42.660;23.342;2024-03-08T12:36:16;3.27;;;2.50;;
8048;SDS011;20935;42.660;23.342;2024-03-08T12:39:04;2.03;;;1.93;;
8048;SDS011;20935;42.660;23.342;2024-03-08T12:41:57;2.20;;;2.00;;
8048;SDS011;20935;42.660;23.342;2024-03-08T12:44:43;4.43;;;3.07;;
8048;SDS011;20935;42.660;23.342;2024-03-08T12:47:30;2.30;;;2.10;;
8048;SDS011;20935;42.660;23.342;2024-03-08T12:50:15;2.00;;;1.90;;
8048;SDS011;20935;42.660;23.342;2024-03-08T12:53:01;2.43;;;2.20;;
8048;SDS011;20935;42.660;23.342;2024-03-08T12:55:47;2.30;;;2.13;;
8048;SDS011;20935;42.660;23.342;2024-03-08T12:58:37;3.17;;;2.27;;
8048;SDS011;20935;42.660;23.342;2024-03-08T13:01:22;2.27;;;2.07;;
8048;SDS011;20935;42.660;23.342;2024-03-08T13:04:08;2.27;;;2.07;;
8048;SDS011;20935;42.660;23.342;2024-03-08T13:06:56;2.40;;;2.20;;
8048;SDS011;20935;42.660;23.342;2024-03-08T13:09:43;2.80;;;2.10;;
8048;SDS011;20935;42.660;23.342;2024-03-08T13:12:30;2.17;;;2.00;;
8048;SDS011;20935;42.660;23.342;2024-03-08T13:15:18;3.97;;;2.20;;
8048;SDS011;20935;42.660;23.342;2024-03-08T13:18:06;2.53;;;2.33;;
8048;SDS011;20935;42.660;23.342;2024-03-08T13:20:54;2.30;;;2.10;;
8048;SDS011;20935;42.660;23.342;2024-03-08T13:23:43;2.20;;;2.07;;
8048;SDS011;20935;42.660;23.342;2024-03-08T13:26:31;3.90;;;2.33;;
8048;SDS011;20935;42.660;23.342;2024-03-08T13:29:19;2.10;;;1.90;;
8048;SDS011;20935;42.660;23.342;2024-03-08T13:32:08;2.57;;;1.93;;
8048;SDS011;20935;42.660;23.342;2024-03-08T13:34:57;3.10;;;2.13;;
8048;SDS011;20935;42.660;23.342;2024-03-08T13:37:44;2.27;;;2.13;;
8048;SDS011;20935;42.660;23.342;2024-03-08T13:40:30;2.27;;;2.10;;
8048;SDS011;20935;42.660;23.342;2024-03-08T13:43:20;2.30;;;2.10;;
8048;SDS011;20935;42.660;23.342;2024-03-08T13:46:07;3.60;;;2.27;;
8048;SDS011;20935;42.660;23.342;2024-03-08T13:48:57;2.30;;;2.20;;
8048;SDS011;20935;42.660;23.342;2024-03-08T13:51:51;2.20;;;2.00;;
8048;SDS011;20935;42.660;23.342;2024-03-08T13:54:40;2.57;;;2.10;;
8048;SDS011;20935;42.660;23.342;2024-03-08T13:57:27;2.30;;;2.10;;
8048;SDS011;20935;42.660;23.342;2024-03-08T14:00:14;1.90;;;1.80;;
8048;SDS011;20935;42.660;23.342;2024-03-08T14:03:01;3.30;;;2.30;;
8048;SDS011;20935;42.660;23.342;2024-03-08T14:05:52;2.20;;;2.00;;
8048;SDS011;20935;42.660;23.342;2024-03-08T14:08:40;3.97;;;2.00;;
8048;SDS011;20935;42.660;23.342;2024-03-08T14:11:27;2.30;;;2.00;;
8048;SDS011;20935;42.660;23.342;2024-03-08T14:14:14;3.97;;;1.97;;
8048;SDS011;20935;42.660;23.342;2024-03-08T14:17:01;3.50;;;2.00;;
8048;SDS011;20935;42.660;23.342;2024-03-08T14:19:48;3.23;;;2.40;;
8048;SDS011;20935;42.660;23.342;2024-03-08T14:22:37;3.33;;;2.03;;
8048;SDS011;20935;42.660;23.342;2024-03-08T14:25:24;3.80;;;2.10;;
8048;SDS011;20935;42.660;23.342;2024-03-08T14:28:11;2.77;;;2.47;;
8048;SDS011;20935;42.660;23.342;2024-03-08T14:30:57;3.53;;;2.60;;
8048;SDS011;20935;42.660;23.342;2024-03-08T14:33:48;6.80;;;2.73;;
8048;SDS011;20935;42.660;23.342;2024-03-08T14:36:35;3.57;;;2.77;;
8048;SDS011;20935;42.660;23.342;2024-03-08T14:39:23;3.47;;;3.10;;
8048;SDS011;20935;42.660;23.342;2024-03-08T14:42:12;4.47;;;2.90;;
8048;SDS011;20935;42.660;23.342;2024-03-08T14:45:00;3.70;;;2.70;;
8048;SDS011;20935;42.660;23.342;2024-03-08T14:47:47;2.67;;;2.47;;
8048;SDS011;20935;42.660;23.342;2024-03-08T14:50:35;3.30;;;2.60;;
8048;SDS011;20935;42.660;23.342;2024-03-08T14:53:22;4.33;;;3.07;;
8048;SDS011;20935;42.660;23.342;2024-03-08T14:56:11;3.60;;;2.63;;
8048;SDS011;20935;42.660;23.342;2024-03-08T14:59:01;3.40;;;3.00;;
8048;SDS011;20935;42.660;23.342;2024-03-08T15:01:50;3.47;;;3.17;;
8048;SDS011;20935;42.660;23.342;2024-03-08T15:04:37;3.07;;;2.80;;
8048;SDS011;20935;42.660;23.342;2024-03-08T15:07:26;3.10;;;2.80;;
8048;SDS011;20935;42.660;23.342;2024-03-08T15:10:15;3.70;;;3.10;;
8048;SDS011;20935;42.660;23.342;2024-03-08T15:13:07;3.83;;;3.10;;
8048;SDS011;20935;42.660;23.342;2024-03-08T15:16:01;3.63;;;3.33;;
8048;SDS011;20935;42.660;23.342;2024-03-08T15:18:51;3.50;;;3.20;;
8048;SDS011;20935;42.660;23.342;2024-03-08T15:21:39;3.33;;;3.03;;
8048;SDS011;20935;42.660;23.342;2024-03-08T15:24:26;4.37;;;3.67;;
8048;SDS011;20935;42.660;23.342;2024-03-08T15:27:13;3.53;;;3.23;;
8048;SDS011;20935;42.660;23.342;2024-03-08T15:30:02;3.83;;;3.50;;
8048;SDS011;20935;42.660;23.342;2024-03-08T15:32:51;5.13;;;3.83;;
8048;SDS011;20935;42.660;23.342;2024-03-08T15:35:42;3.53;;;3.23;;
8048;SDS011;20935;42.660;23.342;2024-03-08T15:38:34;5.20;;;3.93;;
8048;SDS011;20935;42.660;23.342;2024-03-08T15:41:21;4.50;;;4.10;;
8048;SDS011;20935;42.660;23.342;2024-03-08T15:44:07;5.37;;;3.77;;
8048;SDS011;20935;42.660;23.342;2024-03-08T15:46:59;4.67;;;4.20;;
8048;SDS011;20935;42.660;23.342;2024-03-08T15:49:46;4.10;;;3.70;;
8048;SDS011;20935;42.660;23.342;2024-03-08T15:52:33;3.93;;;3.53;;
8048;SDS011;20935;42.660;23.342;2024-03-08T15:55:20;3.47;;;3.17;;
8048;SDS011;20935;42.660;23.342;2024-03-08T15:58:08;5.30;;;4.10;;
8048;SDS011;20935;42.660;23.342;2024-03-08T16:01:01;7.10;;;3.70;;
8048;SDS011;20935;42.660;23.342;2024-03-08T16:03:53;6.90;;;4.33;;
8048;SDS011;20935;42.660;23.342;2024-03-08T16:06:40;3.93;;;3.50;;
8048;SDS011;20935;42.660;23.342;2024-03-08T16:09:27;4.27;;;3.87;;
8048;SDS011;20935;42.660;23.342;2024-03-08T16:12:14;6.97;;;5.27;;
8048;SDS011;20935;42.660;23.342;2024-03-08T16:15:01;7.97;;;4.50;;
8048;SDS011;20935;42.660;23.342;2024-03-08T16:17:51;4.43;;;4.03;;
8048;SDS011;20935;42.660;23.342;2024-03-08T16:20:39;4.70;;;4.20;;
8048;SDS011;20935;42.660;23.342;2024-03-08T16:23:29;4.40;;;4.00;;
8048;SDS011;20935;42.660;23.342;2024-03-08T16:26:16;4.17;;;3.77;;
8048;SDS011;20935;42.660;23.342;2024-03-08T16:29:04;5.13;;;4.00;;
8048;SDS011;20935;42.660;23.342;2024-03-08T16:31:51;4.60;;;4.03;;
8048;SDS011;20935;42.660;23.342;2024-03-08T16:34:41;5.13;;;4.10;;
8048;SDS011;20935;42.660;23.342;2024-03-08T16:37:29;6.57;;;4.70;;
8048;SDS011;20935;42.660;23.342;2024-03-08T16:40:16;4.33;;;3.83;;
8048;SDS011;20935;42.660;23.342;2024-03-08T16:43:05;11.20;;;4.60;;
8048;SDS011;20935;42.660;23.342;2024-03-08T16:45:56;6.77;;;4.60;;
8048;SDS011;20935;42.660;23.342;2024-03-08T16:48:46;6.03;;;4.40;;
8048;SDS011;20935;42.660;23.342;2024-03-08T16:51:33;7.10;;;4.97;;
8048;SDS011;20935;42.660;23.342;2024-03-08T16:54:21;7.00;;;5.00;;